createdAt,value
2019-03-25T00:01:19.738Z,1.00
2019-03-25T00:03:51.125Z,1.10
2019-03-25T00:06:22.269Z,1.30
2019-03-25T00:09:04.553Z,1.30
2019-03-25T00:11:23.574Z,1.20
2019-03-25T00:13:54.876Z,1.20
2019-03-25T00:16:24.398Z,1.20
2019-03-25T00:18:52.829Z,1.10
2019-03-25T00:21:27.137Z,1.00
2019-03-25T00:23:58.430Z,0.90
2019-03-25T00:26:26.811Z,0.80
2019-03-25T00:28:57.906Z,0.70
2019-03-25T00:31:30.286Z,0.70
2019-03-25T00:34:01.229Z,0.50
2019-03-25T00:36:31.253Z,0.50
2019-03-25T00:39:01.290Z,0.70
2019-03-25T00:41:29.670Z,1.00
2019-03-25T00:44:06.078Z,1.40
2019-03-25T00:46:37.361Z,1.80
2019-03-25T00:49:05.831Z,2.30
2019-03-25T00:51:34.201Z,2.60
2019-03-25T00:54:05.289Z,2.70
2019-03-25T00:56:33.941Z,2.70
2019-03-25T00:59:02.325Z,2.60
2019-03-25T01:01:30.719Z,2.30
2019-03-25T01:04:00.741Z,2.20
2019-03-25T01:06:40.350Z,2.10
2019-03-25T01:09:11.557Z,1.90
2019-03-25T01:11:48.613Z,1.80
2019-03-25T01:14:12.965Z,1.60
2019-03-25T01:16:41.598Z,1.50
2019-03-25T01:19:12.963Z,1.60
2019-03-25T01:21:45.741Z,1.80
2019-03-25T01:24:14.129Z,2.00
2019-03-25T01:26:42.794Z,1.90
2019-03-25T01:29:12.424Z,1.70
2019-03-25T01:31:40.848Z,1.60
2019-03-25T01:34:09.539Z,1.40
2019-03-25T01:36:38.003Z,1.30
2019-03-25T01:39:10.444Z,1.20
2019-03-25T01:41:40.080Z,1.00
2019-03-25T01:44:08.745Z,0.90
2019-03-25T01:46:38.110Z,0.80
2019-03-25T01:49:06.580Z,0.70
2019-03-25T01:51:35.197Z,0.70
2019-03-25T01:54:03.786Z,0.60
2019-03-25T01:56:32.366Z,0.50
2019-03-25T01:59:02.077Z,0.50
2019-03-25T02:01:30.774Z,0.50
2019-03-25T02:03:59.302Z,0.40
2019-03-25T02:06:27.890Z,0.30
2019-03-25T02:08:56.437Z,0.30
2019-03-25T02:11:25.062Z,0.20
2019-03-25T02:13:53.649Z,0.30
2019-03-25T02:16:22.269Z,0.20
2019-03-25T02:18:52.448Z,0.20
2019-03-25T02:21:22.668Z,0.20
2019-03-25T02:23:52.871Z,0.10
2019-03-25T02:26:21.696Z,0.10
2019-03-25T02:28:53.238Z,0.10
2019-03-25T02:31:27.340Z,0.00
2019-03-25T02:33:55.959Z,-0.10
2019-03-25T02:36:27.491Z,-0.20
2019-03-25T02:39:02.112Z,-0.30
2019-03-25T02:41:30.843Z,-0.40
2019-03-25T02:44:03.137Z,-0.40
2019-03-25T02:46:31.713Z,-0.50
2019-03-25T02:49:00.433Z,-0.50
2019-03-25T02:51:31.233Z,-0.60
2019-03-25T02:53:59.887Z,-0.70
2019-03-25T02:56:34.420Z,-0.80
2019-03-25T02:59:03.045Z,-0.90
2019-03-25T03:01:34.581Z,-0.90
2019-03-25T03:04:04.820Z,-1.00
2019-03-25T03:06:34.211Z,-1.10
2019-03-25T03:09:04.328Z,-1.10
2019-03-25T03:11:33.271Z,-1.10
2019-03-25T03:14:04.747Z,-1.10
2019-03-25T03:16:33.333Z,-1.20
2019-03-25T03:19:02.255Z,-1.20
2019-03-25T03:21:33.757Z,-1.10
2019-03-25T03:24:04.834Z,-1.10
2019-03-25T03:26:36.580Z,-1.10
2019-03-25T03:29:06.985Z,-1.10
2019-03-25T03:31:38.319Z,-1.20
2019-03-25T03:34:11.723Z,-1.10
2019-03-25T03:36:40.483Z,-1.00
2019-03-25T03:39:10.619Z,-1.00
2019-03-25T03:41:39.164Z,-1.00
2019-03-25T03:44:16.986Z,-1.00
2019-03-25T03:46:47.178Z,-1.00
2019-03-25T03:49:15.814Z,-0.90
2019-03-25T03:51:48.676Z,-0.70
2019-03-25T03:54:19.581Z,-0.40
2019-03-25T03:56:56.752Z,-0.30
2019-03-25T03:59:28.405Z,-0.20
2019-03-25T04:01:56.777Z,-0.20
2019-03-25T04:04:28.139Z,-0.20
2019-03-25T04:07:00.888Z,-0.10
2019-03-25T04:09:31.149Z,0.00
2019-03-25T04:11:59.535Z,0.20
2019-03-25T04:14:31.239Z,0.30
2019-03-25T04:17:05.198Z,0.40
2019-03-25T04:19:33.566Z,0.60
2019-03-25T04:22:03.634Z,0.80
2019-03-25T04:24:36.615Z,0.90
2019-03-25T04:27:06.663Z,1.10
2019-03-25T04:29:38.148Z,1.10
2019-03-25T04:32:12.502Z,1.20
2019-03-25T04:34:45.538Z,1.30
2019-03-25T04:37:19.887Z,1.30
2019-03-25T04:39:49.155Z,1.30
2019-03-25T04:42:27.811Z,1.20
2019-03-25T04:44:56.741Z,0.90
2019-03-25T04:47:30.737Z,0.70
2019-03-25T04:50:00.771Z,0.60
2019-03-25T04:52:38.253Z,0.40
2019-03-25T04:55:10.101Z,0.30
2019-03-25T04:57:40.576Z,0.30
2019-03-25T05:00:13.401Z,0.20
2019-03-25T05:02:44.741Z,0.20
2019-03-25T05:05:13.189Z,0.20
2019-03-25T05:07:41.820Z,0.20
2019-03-25T05:10:10.974Z,0.20
2019-03-25T05:12:42.029Z,0.40
2019-03-25T05:15:10.425Z,0.60
2019-03-25T05:17:44.497Z,0.80
2019-03-25T05:20:13.557Z,1.00
2019-03-25T05:22:42.437Z,1.30
2019-03-25T05:25:12.529Z,1.60
2019-03-25T05:27:43.885Z,1.80
2019-03-25T05:30:12.353Z,2.00
2019-03-25T05:32:40.753Z,2.20
2019-03-25T05:35:09.204Z,2.30
2019-03-25T05:37:39.241Z,2.50
2019-03-25T05:40:09.473Z,2.60
2019-03-25T05:42:39.540Z,2.60
2019-03-25T05:45:11.305Z,2.70
2019-03-25T05:47:39.693Z,2.80
2019-03-25T05:50:09.524Z,2.90
2019-03-25T05:52:37.911Z,3.00
2019-03-25T05:55:07.637Z,3.00
2019-03-25T05:57:42.081Z,3.10
2019-03-25T06:00:14.679Z,3.30
2019-03-25T06:02:43.090Z,3.30
2019-03-25T06:05:11.554Z,3.40
2019-03-25T06:07:42.761Z,3.50
2019-03-25T06:10:14.359Z,3.70
2019-03-25T06:12:45.768Z,3.80
2019-03-25T06:15:15.052Z,3.80
2019-03-25T06:17:46.389Z,3.90
2019-03-25T06:20:17.668Z,4.00
2019-03-25T06:22:50.412Z,4.20
2019-03-25T06:25:18.809Z,4.40
2019-03-25T06:27:54.808Z,4.70
2019-03-25T06:30:23.440Z,4.80
2019-03-25T06:32:57.057Z,5.00
2019-03-25T06:35:25.444Z,5.40
2019-03-25T06:37:54.066Z,6.00
2019-03-25T06:40:23.780Z,6.10
2019-03-25T06:42:52.133Z,6.00
2019-03-25T06:45:29.553Z,5.80
2019-03-25T06:47:57.934Z,5.70
2019-03-25T06:50:26.333Z,5.60
2019-03-25T06:52:55.990Z,5.60
2019-03-25T06:55:27.405Z,5.60
2019-03-25T06:57:57.427Z,5.60
2019-03-25T07:00:32.153Z,5.50
2019-03-25T07:03:00.561Z,5.50
2019-03-25T07:05:31.732Z,5.50
2019-03-25T07:08:00.110Z,5.60
2019-03-25T07:10:34.265Z,5.60
2019-03-25T07:13:03.485Z,5.60
2019-03-25T07:15:31.946Z,5.70
2019-03-25T07:18:03.299Z,5.80
2019-03-25T07:20:31.674Z,5.80
2019-03-25T07:23:01.701Z,5.80
2019-03-25T07:25:30.120Z,5.90
2019-03-25T07:28:01.835Z,5.80
2019-03-25T07:30:30.214Z,5.90
2019-03-25T07:33:01.285Z,6.00
2019-03-25T07:35:29.906Z,5.90
2019-03-25T07:37:58.978Z,5.80
2019-03-25T07:40:27.354Z,5.70
2019-03-25T07:42:58.524Z,5.80
2019-03-25T07:45:26.911Z,6.00
2019-03-25T07:48:04.300Z,6.10
2019-03-25T07:50:33.286Z,6.20
2019-03-25T07:53:01.677Z,6.00
2019-03-25T07:55:30.069Z,5.70
2019-03-25T07:57:58.471Z,5.60
2019-03-25T08:00:30.089Z,5.50
2019-03-25T08:02:58.724Z,5.20
2019-03-25T08:05:27.096Z,5.10
2019-03-25T08:07:55.490Z,5.10
2019-03-25T08:10:35.864Z,5.30
2019-03-25T08:13:05.034Z,5.50
2019-03-25T08:15:35.418Z,5.80
2019-03-25T08:18:06.411Z,6.00
2019-03-25T08:20:37.464Z,6.30
2019-03-25T08:23:05.855Z,6.50
2019-03-25T08:25:34.949Z,6.90
2019-03-25T08:28:03.393Z,7.00
2019-03-25T08:30:34.743Z,6.90
2019-03-25T08:33:06.106Z,6.80
2019-03-25T08:35:34.575Z,6.80
2019-03-25T08:38:08.181Z,6.80
2019-03-25T08:40:36.573Z,6.80
2019-03-25T08:43:08.153Z,7.10
2019-03-25T08:45:39.265Z,7.50
2019-03-25T08:48:09.285Z,8.10
2019-03-25T08:50:38.039Z,8.60
2019-03-25T08:53:06.417Z,9.30
2019-03-25T08:55:37.486Z,9.00
2019-03-25T08:58:12.028Z,8.60
2019-03-25T09:00:39.729Z,8.70
2019-03-25T09:03:11.168Z,9.30
2019-03-25T09:05:39.537Z,9.20
2019-03-25T09:08:11.690Z,9.40
2019-03-25T09:10:40.097Z,9.50
2019-03-25T09:13:08.482Z,9.20
2019-03-25T09:15:41.274Z,9.40
2019-03-25T09:18:09.968Z,9.70
2019-03-25T09:20:38.350Z,9.80
2019-03-25T09:23:08.454Z,10.10
2019-03-25T09:25:38.386Z,10.60
2019-03-25T09:28:09.693Z,10.30
2019-03-25T09:30:58.959Z,10.00
2019-03-25T09:33:27.346Z,10.00
2019-03-25T09:35:55.839Z,10.40
2019-03-25T09:38:30.788Z,10.90
2019-03-25T09:41:00.346Z,11.00
2019-03-25T09:43:28.753Z,9.90
2019-03-25T09:45:57.159Z,7.70
2019-03-25T09:48:25.606Z,6.30
2019-03-25T09:50:55.727Z,5.70
2019-03-25T09:53:24.099Z,5.50
2019-03-25T09:55:52.731Z,5.70
2019-03-25T09:58:21.125Z,6.30
2019-03-25T10:00:52.061Z,6.90
2019-03-25T10:03:19.861Z,7.80
2019-03-25T10:05:49.899Z,8.50
2019-03-25T10:08:19.265Z,9.20
2019-03-25T10:10:47.734Z,9.90
2019-03-25T10:13:16.116Z,10.30
2019-03-25T10:15:44.524Z,10.50
2019-03-25T10:18:13.152Z,10.80
2019-03-25T10:20:43.088Z,10.70
2019-03-25T10:23:12.369Z,10.90
2019-03-25T10:25:40.774Z,11.30
2019-03-25T10:28:09.162Z,11.80
2019-03-25T10:30:38.993Z,12.40
2019-03-25T10:33:07.625Z,12.30
2019-03-25T10:35:36.023Z,11.80
2019-03-25T10:38:18.892Z,11.20
2019-03-25T10:40:37.522Z,11.50
2019-03-25T10:43:08.630Z,11.50
2019-03-25T10:45:41.070Z,11.70
2019-03-25T10:48:09.439Z,12.10
2019-03-25T10:50:37.825Z,12.50
2019-03-25T10:53:06.470Z,12.70
2019-03-25T10:55:34.871Z,12.50
2019-03-25T10:58:03.566Z,12.50
2019-03-25T11:00:33.233Z,11.70
2019-03-25T11:03:01.623Z,10.60
2019-03-25T11:05:30.024Z,9.80
2019-03-25T11:07:58.408Z,10.00
2019-03-25T11:10:27.852Z,11.00
2019-03-25T11:12:56.494Z,11.90
2019-03-25T11:15:25.109Z,11.70
2019-03-25T11:17:53.517Z,11.20
2019-03-25T11:20:21.911Z,11.50
2019-03-25T11:22:50.360Z,12.00
2019-03-25T11:25:18.915Z,12.30
2019-03-25T11:27:54.228Z,13.30
2019-03-25T11:30:21.239Z,13.50
2019-03-25T11:32:50.431Z,13.30
2019-03-25T11:35:19.744Z,13.50
2019-03-25T11:37:48.181Z,13.00
2019-03-25T11:40:18.123Z,12.10
2019-03-25T11:42:46.913Z,11.40
2019-03-25T11:45:16.264Z,10.80
2019-03-25T11:47:44.889Z,10.30
2019-03-25T11:50:15.824Z,10.20
2019-03-25T11:52:44.228Z,10.10
2019-03-25T11:55:13.268Z,9.90
2019-03-25T11:57:41.722Z,9.90
2019-03-25T12:00:11.349Z,9.80
2019-03-25T12:02:39.780Z,9.50
2019-03-25T12:05:12.797Z,9.10
2019-03-25T12:07:43.877Z,8.50
2019-03-25T12:10:13.113Z,7.80
2019-03-25T12:12:41.489Z,7.30
2019-03-25T12:15:10.997Z,6.90
2019-03-25T12:17:39.385Z,6.60
2019-03-25T12:20:09.798Z,7.10
2019-03-25T12:22:38.197Z,7.40
2019-03-25T12:25:08.684Z,8.30
2019-03-25T12:27:37.081Z,9.80
2019-03-25T12:30:11.249Z,10.70
2019-03-25T12:32:39.882Z,10.90
2019-03-25T12:35:09.122Z,10.30
2019-03-25T12:37:37.797Z,9.40
2019-03-25T12:40:08.223Z,8.60
2019-03-25T12:42:38.105Z,7.50
2019-03-25T12:45:09.023Z,6.50
2019-03-25T12:47:37.515Z,5.80
2019-03-25T12:50:07.585Z,5.40
2019-03-25T12:52:36.983Z,5.20
2019-03-25T12:55:08.453Z,5.80
2019-03-25T12:57:38.466Z,7.00
2019-03-25T13:00:08.382Z,8.00
2019-03-25T13:02:36.771Z,8.80
2019-03-25T13:05:09.827Z,9.10
2019-03-25T13:07:38.180Z,8.90
2019-03-25T13:10:07.847Z,8.90
2019-03-25T13:12:36.464Z,9.40
2019-03-25T13:15:07.258Z,10.00
2019-03-25T13:17:35.717Z,10.50
2019-03-25T13:20:06.244Z,11.00
2019-03-25T13:22:34.870Z,11.80
2019-03-25T13:25:05.051Z,12.10
2019-03-25T13:27:34.736Z,11.50
2019-03-25T13:30:16.216Z,10.80
2019-03-25T13:32:54.021Z,10.40
2019-03-25T13:35:23.385Z,10.10
2019-03-25T13:37:51.762Z,9.80
2019-03-25T13:40:59.887Z,9.70
2019-03-25T13:43:29.533Z,9.80
2019-03-25T13:46:05.417Z,10.60
2019-03-25T13:48:28.045Z,11.10
2019-03-25T13:50:57.651Z,11.20
2019-03-25T13:53:26.031Z,11.40
2019-03-25T13:55:54.436Z,12.10
2019-03-25T13:58:23.070Z,12.10
2019-03-25T14:00:51.460Z,11.50
2019-03-25T14:03:19.857Z,10.60
2019-03-25T14:05:48.266Z,9.80
2019-03-25T14:08:17.095Z,9.20
2019-03-25T14:10:45.473Z,8.80
2019-03-25T14:13:13.864Z,8.40
2019-03-25T14:15:45.345Z,8.00
2019-03-25T14:18:13.762Z,7.80
2019-03-25T14:20:42.150Z,7.70
2019-03-25T14:23:10.781Z,7.70
2019-03-25T14:25:39.172Z,7.60
2019-03-25T14:28:08.558Z,7.50
2019-03-25T14:30:36.949Z,7.30
2019-03-25T14:33:05.398Z,7.20
2019-03-25T14:35:35.323Z,7.30
2019-03-25T14:38:03.786Z,8.20
2019-03-25T14:40:32.237Z,9.10
2019-03-25T14:43:00.775Z,10.10
2019-03-25T14:45:29.153Z,10.60
2019-03-25T14:47:57.793Z,11.40
2019-03-25T14:50:26.173Z,11.90
2019-03-25T14:52:56.497Z,12.30
2019-03-25T14:55:24.917Z,12.20
2019-03-25T14:57:53.314Z,12.30
2019-03-25T15:00:25.577Z,12.30
2019-03-25T15:02:51.813Z,12.50
2019-03-25T15:05:20.209Z,12.50
2019-03-25T15:07:48.593Z,12.60
2019-03-25T15:10:17.720Z,12.70
2019-03-25T15:12:46.229Z,12.80
2019-03-25T15:15:16.305Z,13.20
2019-03-25T15:17:44.707Z,13.80
2019-03-25T15:20:14.957Z,13.80
2019-03-25T15:22:49.092Z,13.20
2019-03-25T15:25:14.982Z,12.30
2019-03-25T15:27:43.933Z,11.70
2019-03-25T15:30:14.464Z,11.10
2019-03-25T15:32:44.494Z,10.60
2019-03-25T15:35:16.176Z,10.50
2019-03-25T15:37:46.250Z,11.20
2019-03-25T15:40:16.077Z,11.90
2019-03-25T15:42:46.316Z,11.60
2019-03-25T15:45:15.770Z,11.90
2019-03-25T15:47:47.381Z,12.30
2019-03-25T15:50:20.268Z,12.60
2019-03-25T15:52:51.773Z,12.60
2019-03-25T15:55:20.218Z,12.30
2019-03-25T15:57:51.754Z,12.00
2019-03-25T16:00:24.020Z,11.60
2019-03-25T16:02:52.661Z,10.70
2019-03-25T16:05:21.042Z,10.10
2019-03-25T16:07:50.200Z,9.30
2019-03-25T16:10:24.805Z,8.70
2019-03-25T16:12:53.201Z,8.30
2019-03-25T16:15:40.150Z,8.10
2019-03-25T16:18:32.561Z,7.90
2019-03-25T16:21:00.944Z,7.80
2019-03-25T16:23:30.975Z,7.70
2019-03-25T16:25:59.349Z,7.70
2019-03-25T16:28:33.541Z,7.70
2019-03-25T16:31:03.565Z,7.60
2019-03-25T16:33:37.951Z,7.50
2019-03-25T16:36:12.197Z,7.40
2019-03-25T16:38:42.233Z,7.40
2019-03-25T16:41:10.617Z,7.40
2019-03-25T16:43:41.996Z,7.30
2019-03-25T16:46:14.728Z,7.60
2019-03-25T16:48:43.114Z,8.00
2019-03-25T16:51:11.503Z,7.80
2019-03-25T16:53:39.879Z,7.60
2019-03-25T16:56:14.449Z,7.40
2019-03-25T16:58:42.828Z,7.30
2019-03-25T17:01:11.204Z,7.10
2019-03-25T17:03:39.596Z,7.10
2019-03-25T17:06:10.693Z,7.00
2019-03-25T17:08:39.317Z,6.90
2019-03-25T17:11:09.368Z,6.90
2019-03-25T17:13:42.161Z,6.90
2019-03-25T17:16:13.324Z,6.80
2019-03-25T17:18:41.701Z,6.70
2019-03-25T17:21:10.791Z,6.70
2019-03-25T17:23:39.166Z,6.70
2019-03-25T17:26:09.199Z,6.60
2019-03-25T17:28:38.573Z,6.50
2019-03-25T17:31:07.146Z,6.10
2019-03-25T17:33:41.271Z,5.90
2019-03-25T17:36:11.320Z,5.80
2019-03-25T17:38:39.937Z,5.70
2019-03-25T17:41:11.218Z,5.60
2019-03-25T17:43:39.850Z,5.60
2019-03-25T17:46:08.235Z,5.50
2019-03-25T17:48:39.540Z,5.50
2019-03-25T17:51:09.018Z,5.40
2019-03-25T17:53:41.582Z,5.40
2019-03-25T17:56:09.926Z,5.40
2019-03-25T17:58:41.218Z,5.30
2019-03-25T18:01:11.984Z,5.20
2019-03-25T18:03:43.077Z,5.00
2019-03-25T18:06:11.467Z,4.90
2019-03-25T18:08:39.856Z,4.70
2019-03-25T18:11:10.196Z,4.70
2019-03-25T18:13:41.053Z,4.60
2019-03-25T18:16:09.681Z,4.50
2019-03-25T18:18:42.798Z,4.30
2019-03-25T18:21:11.236Z,4.20
2019-03-25T18:23:40.715Z,4.00
2019-03-25T18:26:09.334Z,3.80
2019-03-25T18:28:37.713Z,3.80
2019-03-25T18:31:06.123Z,3.70
2019-03-25T18:33:36.165Z,3.60
2019-03-25T18:36:04.794Z,3.50
2019-03-25T18:38:33.169Z,3.40
2019-03-25T18:41:05.901Z,3.30
2019-03-25T18:43:34.967Z,3.30
2019-03-25T18:46:03.439Z,3.20
2019-03-25T18:48:36.001Z,3.20
2019-03-25T18:51:08.887Z,3.20
2019-03-25T18:53:37.517Z,3.10
2019-03-25T18:56:10.668Z,3.10
2019-03-25T18:58:38.759Z,3.00
2019-03-25T19:01:07.128Z,3.00
2019-03-25T19:03:35.542Z,3.00
2019-03-25T19:06:06.821Z,3.00
2019-03-25T19:08:38.313Z,3.00
2019-03-25T19:11:06.060Z,3.00
2019-03-25T19:13:34.455Z,3.10
2019-03-25T19:16:02.832Z,3.20
2019-03-25T19:18:31.369Z,3.40
2019-03-25T19:20:59.717Z,3.40
2019-03-25T19:23:29.939Z,3.50
2019-03-25T19:25:58.346Z,3.50
2019-03-25T19:28:30.064Z,3.40
2019-03-25T19:30:59.059Z,3.40
2019-03-25T19:33:27.719Z,3.40
2019-03-25T19:35:58.828Z,3.40
2019-03-25T19:38:30.227Z,3.30
2019-03-25T19:41:05.941Z,3.30
2019-03-25T19:43:37.429Z,3.30
2019-03-25T19:46:05.822Z,3.30
2019-03-25T19:48:34.369Z,3.20
2019-03-25T19:51:04.394Z,3.10
2019-03-25T19:53:35.733Z,3.10
2019-03-25T19:56:04.457Z,3.20
2019-03-25T19:58:32.841Z,3.20
2019-03-25T20:01:01.306Z,3.40
2019-03-25T20:03:32.839Z,3.50
2019-03-25T20:06:00.562Z,3.70
2019-03-25T20:08:29.151Z,3.70
2019-03-25T20:11:03.361Z,3.80
2019-03-25T20:13:34.305Z,3.80
2019-03-25T20:16:07.647Z,3.80
2019-03-25T20:18:35.117Z,3.80
2019-03-25T20:21:03.609Z,3.80
2019-03-25T20:23:37.837Z,3.90
2019-03-25T20:26:08.984Z,3.90
2019-03-25T20:28:37.705Z,4.00
2019-03-25T20:31:09.138Z,4.10
2019-03-25T20:33:37.550Z,4.20
2019-03-25T20:36:08.930Z,4.20
2019-03-25T20:38:40.071Z,4.30
2019-03-25T20:41:08.452Z,4.30
2019-03-25T20:43:36.891Z,4.30
2019-03-25T20:46:05.302Z,4.40
2019-03-25T20:48:36.681Z,4.40
2019-03-25T20:51:29.870Z,4.40
2019-03-25T20:53:58.292Z,4.30
2019-03-25T20:56:29.875Z,4.10
2019-03-25T20:58:58.551Z,3.90
2019-03-25T21:01:27.178Z,3.80
2019-03-25T21:03:58.279Z,3.70
2019-03-25T21:06:26.778Z,3.50
2019-03-25T21:08:55.172Z,3.40
2019-03-25T21:11:29.389Z,3.40
2019-03-25T21:14:00.539Z,3.30
2019-03-25T21:16:32.405Z,3.30
2019-03-25T21:19:00.788Z,3.30
2019-03-25T21:21:29.171Z,3.30
2019-03-25T21:23:57.680Z,3.30
2019-03-25T21:26:28.954Z,3.20
2019-03-25T21:28:57.405Z,3.20
2019-03-25T21:31:26.697Z,3.20
2019-03-25T21:33:55.096Z,3.20
2019-03-25T21:36:23.582Z,3.20
2019-03-25T21:38:52.011Z,3.10
2019-03-25T21:41:20.399Z,3.10
2019-03-25T21:43:48.791Z,3.10
2019-03-25T21:46:17.175Z,3.10
2019-03-25T21:48:45.750Z,3.20
2019-03-25T21:51:17.655Z,3.20
2019-03-25T21:53:46.058Z,3.20
2019-03-25T21:56:17.086Z,3.20
2019-03-25T21:58:45.560Z,3.20
2019-03-25T22:01:14.179Z,3.30
2019-03-25T22:03:42.796Z,3.40
2019-03-25T22:06:17.002Z,3.40
2019-03-25T22:08:48.379Z,3.40
2019-03-25T22:11:16.745Z,3.40
2019-03-25T22:13:49.441Z,3.40
2019-03-25T22:16:20.530Z,3.40
2019-03-25T22:18:48.911Z,3.40
2019-03-25T22:21:18.321Z,3.50
2019-03-25T22:23:49.433Z,3.50
2019-03-25T22:26:20.353Z,3.50
2019-03-25T22:28:54.342Z,3.50
2019-03-25T22:31:28.484Z,3.50
2019-03-25T22:33:56.860Z,3.40
2019-03-25T22:36:26.257Z,3.40
2019-03-25T22:38:54.625Z,3.50
2019-03-25T22:41:26.032Z,3.50
2019-03-25T22:43:57.393Z,3.60
2019-03-25T22:46:27.420Z,3.70
2019-03-25T22:48:55.814Z,3.70
2019-03-25T22:51:28.560Z,3.80
2019-03-25T22:53:56.954Z,3.90
2019-03-25T22:56:26.995Z,3.90
2019-03-25T22:58:56.992Z,4.00
2019-03-25T23:01:28.630Z,4.00
2019-03-25T23:03:57.019Z,4.10
2019-03-25T23:06:30.031Z,4.10
2019-03-25T23:08:58.405Z,4.00
2019-03-25T23:11:26.797Z,4.00
2019-03-25T23:14:03.780Z,3.90
2019-03-25T23:16:32.177Z,3.80
2019-03-25T23:19:02.247Z,3.80
2019-03-25T23:21:30.662Z,3.80
2019-03-25T23:24:04.415Z,3.80
2019-03-25T23:26:34.677Z,3.70
2019-03-25T23:29:03.078Z,3.60
2019-03-25T23:31:31.460Z,3.70
2019-03-25T23:33:59.860Z,3.80
2019-03-25T23:36:29.920Z,3.90
2019-03-25T23:41:26.680Z,3.90
2019-03-25T23:43:55.653Z,3.80
2019-03-25T23:46:57.601Z,3.70
2019-03-25T23:49:26.447Z,3.70
2019-03-25T23:51:57.750Z,3.60
2019-03-25T23:54:26.147Z,3.60
2019-03-25T23:56:57.477Z,3.50
2019-03-25T23:59:27.509Z,3.40
